sensor_id;sensor_type;location;lat;lon;timestamp;temperature;humidity
6666;DHT22;3369;49.906;8.598;2023-03-21T00:02:07;9.00;99.90
6666;DHT22;3369;49.906;8.598;2023-03-21T00:04:32;9.00;99.90
6666;DHT22;3369;49.906;8.598;2023-03-21T00:06:58;9.00;99.90
6666;DHT22;3369;49.906;8.598;2023-03-21T00:09:24;9.00;99.90
6666;DHT22;3369;49.906;8.598;2023-03-21T00:11:50;9.00;99.90
6666;DHT22;3369;49.906;8.598;2023-03-21T00:14:16;9.00;99.90
6666;DHT22;3369;49.906;8.598;2023-03-21T00:16:45;9.00;99.90
6666;DHT22;3369;49.906;8.598;2023-03-21T00:19:16;8.90;99.90
6666;DHT22;3369;49.906;8.598;2023-03-21T00:21:43;8.90;99.90
6666;DHT22;3369;49.906;8.598;2023-03-21T00:24:10;9.00;99.90
6666;DHT22;3369;49.906;8.598;2023-03-21T00:26:36;8.90;99.90
6666;DHT22;3369;49.906;8.598;2023-03-21T00:29:02;8.90;99.90
6666;DHT22;3369;49.906;8.598;2023-03-21T00:31:28;8.90;99.90
6666;DHT22;3369;49.906;8.598;2023-03-21T00:33:55;8.90;99.90
6666;DHT22;3369;49.906;8.598;2023-03-21T00:36:20;8.90;99.90
6666;DHT22;3369;49.906;8.598;2023-03-21T00:38:46;8.90;99.90
6666;DHT22;3369;49.906;8.598;2023-03-21T00:41:12;9.00;99.90
6666;DHT22;3369;49.906;8.598;2023-03-21T00:43:41;8.90;99.90
6666;DHT22;3369;49.906;8.598;2023-03-21T00:46:07;8.90;99.90
6666;DHT22;3369;49.906;8.598;2023-03-21T00:48:32;8.90;99.90
6666;DHT22;3369;49.906;8.598;2023-03-21T00:50:58;8.90;99.90
6666;DHT22;3369;49.906;8.598;2023-03-21T00:53:26;8.90;99.90
6666;DHT22;3369;49.906;8.598;2023-03-21T00:56:01;8.90;99.90
6666;DHT22;3369;49.906;8.598;2023-03-21T00:58:27;8.90;99.90
6666;DHT22;3369;49.906;8.598;2023-03-21T01:00:52;8.80;99.90
6666;DHT22;3369;49.906;8.598;2023-03-21T01:03:19;8.80;99.90
6666;DHT22;3369;49.906;8.598;2023-03-21T01:05:47;8.80;99.90
6666;DHT22;3369;49.906;8.598;2023-03-21T01:29:31;8.60;99.90
6666;DHT22;3369;49.906;8.598;2023-03-21T01:31:56;8.60;99.90
6666;DHT22;3369;49.906;8.598;2023-03-21T01:34:22;8.60;99.90
6666;DHT22;3369;49.906;8.598;2023-03-21T01:36:48;8.60;99.90
6666;DHT22;3369;49.906;8.598;2023-03-21T01:39:19;8.60;99.90
6666;DHT22;3369;49.906;8.598;2023-03-21T01:41:45;8.60;99.90
6666;DHT22;3369;49.906;8.598;2023-03-21T01:44:15;8.60;99.90
6666;DHT22;3369;49.906;8.598;2023-03-21T01:46:43;8.60;99.90
6666;DHT22;3369;49.906;8.598;2023-03-21T01:49:27;8.50;99.90
6666;DHT22;3369;49.906;8.598;2023-03-21T01:52:00;8.50;99.90
6666;DHT22;3369;49.906;8.598;2023-03-21T01:54:31;8.50;99.90
6666;DHT22;3369;49.906;8.598;2023-03-21T01:57:01;8.40;99.90
6666;DHT22;3369;49.906;8.598;2023-03-21T01:59:42;8.40;99.90
6666;DHT22;3369;49.906;8.598;2023-03-21T02:02:12;8.40;99.90
6666;DHT22;3369;49.906;8.598;2023-03-21T02:04:42;8.40;99.90
6666;DHT22;3369;49.906;8.598;2023-03-21T02:07:39;8.30;99.90
6666;DHT22;3369;49.906;8.598;2023-03-21T02:10:11;8.30;99.90
6666;DHT22;3369;49.906;8.598;2023-03-21T02:12:38;8.30;99.90
6666;DHT22;3369;49.906;8.598;2023-03-21T02:15:05;8.30;99.90
6666;DHT22;3369;49.906;8.598;2023-03-21T02:17:53;8.30;99.90
6666;DHT22;3369;49.906;8.598;2023-03-21T02:47:36;7.80;99.90
6666;DHT22;3369;49.906;8.598;2023-03-21T02:50:12;7.80;99.90
6666;DHT22;3369;49.906;8.598;2023-03-21T02:52:39;7.80;99.90
6666;DHT22;3369;49.906;8.598;2023-03-21T02:55:11;7.80;99.90
6666;DHT22;3369;49.906;8.598;2023-03-21T02:57:43;7.80;99.90
6666;DHT22;3369;49.906;8.598;2023-03-21T03:00:16;7.70;99.90
6666;DHT22;3369;49.906;8.598;2023-03-21T03:02:43;7.70;99.90
6666;DHT22;3369;49.906;8.598;2023-03-21T03:05:15;7.70;99.90
6666;DHT22;3369;49.906;8.598;2023-03-21T03:16:03;7.60;99.90
6666;DHT22;3369;49.906;8.598;2023-03-21T03:18:41;7.60;99.90
6666;DHT22;3369;49.906;8.598;2023-03-21T03:21:20;7.50;99.90
6666;DHT22;3369;49.906;8.598;2023-03-21T03:24:09;7.50;99.90
6666;DHT22;3369;49.906;8.598;2023-03-21T03:26:40;7.60;99.90
6666;DHT22;3369;49.906;8.598;2023-03-21T03:29:13;7.50;99.90
6666;DHT22;3369;49.906;8.598;2023-03-21T03:31:45;7.50;99.90
6666;DHT22;3369;49.906;8.598;2023-03-21T03:34:15;7.50;99.90
6666;DHT22;3369;49.906;8.598;2023-03-21T03:36:46;7.50;99.90
6666;DHT22;3369;49.906;8.598;2023-03-21T03:39:17;7.50;99.90
6666;DHT22;3369;49.906;8.598;2023-03-21T03:41:53;7.50;99.90
6666;DHT22;3369;49.906;8.598;2023-03-21T03:44:30;7.50;99.90
6666;DHT22;3369;49.906;8.598;2023-03-21T03:47:09;7.50;99.90
6666;DHT22;3369;49.906;8.598;2023-03-21T03:49:45;7.50;99.90
6666;DHT22;3369;49.906;8.598;2023-03-21T03:52:19;7.60;99.90
6666;DHT22;3369;49.906;8.598;2023-03-21T03:54:48;7.50;99.90
6666;DHT22;3369;49.906;8.598;2023-03-21T03:57:15;7.50;99.90
6666;DHT22;3369;49.906;8.598;2023-03-21T03:59:43;7.60;99.90
6666;DHT22;3369;49.906;8.598;2023-03-21T04:02:10;7.60;99.90
6666;DHT22;3369;49.906;8.598;2023-03-21T04:04:52;7.50;99.90
6666;DHT22;3369;49.906;8.598;2023-03-21T04:07:19;7.50;99.90
6666;DHT22;3369;49.906;8.598;2023-03-21T04:09:46;7.60;99.90
6666;DHT22;3369;49.906;8.598;2023-03-21T04:12:12;7.60;99.90
6666;DHT22;3369;49.906;8.598;2023-03-21T04:14:38;7.60;99.90
6666;DHT22;3369;49.906;8.598;2023-03-21T04:17:04;7.60;99.90
6666;DHT22;3369;49.906;8.598;2023-03-21T04:19:30;7.60;99.90
6666;DHT22;3369;49.906;8.598;2023-03-21T04:21:56;7.60;99.90
6666;DHT22;3369;49.906;8.598;2023-03-21T04:24:22;7.60;99.90
6666;DHT22;3369;49.906;8.598;2023-03-21T04:29:39;7.70;99.90
6666;DHT22;3369;49.906;8.598;2023-03-21T04:32:05;7.60;99.90
6666;DHT22;3369;49.906;8.598;2023-03-21T04:34:41;7.60;99.90
6666;DHT22;3369;49.906;8.598;2023-03-21T04:37:11;7.60;99.90
6666;DHT22;3369;49.906;8.598;2023-03-21T04:39:43;7.60;99.90
6666;DHT22;3369;49.906;8.598;2023-03-21T04:42:12;7.60;99.90
6666;DHT22;3369;49.906;8.598;2023-03-21T04:44:39;7.50;99.90
6666;DHT22;3369;49.906;8.598;2023-03-21T04:47:05;7.50;99.90
6666;DHT22;3369;49.906;8.598;2023-03-21T04:49:43;7.50;99.90
6666;DHT22;3369;49.906;8.598;2023-03-21T04:52:09;7.50;99.90
6666;DHT22;3369;49.906;8.598;2023-03-21T04:54:34;7.50;99.90
6666;DHT22;3369;49.906;8.598;2023-03-21T04:57:36;7.50;99.90
6666;DHT22;3369;49.906;8.598;2023-03-21T05:00:06;7.50;99.90
6666;DHT22;3369;49.906;8.598;2023-03-21T05:02:36;7.50;99.90
6666;DHT22;3369;49.906;8.598;2023-03-21T05:05:02;7.50;99.90
6666;DHT22;3369;49.906;8.598;2023-03-21T05:07:28;7.50;99.90
6666;DHT22;3369;49.906;8.598;2023-03-21T05:09:57;7.50;99.90
6666;DHT22;3369;49.906;8.598;2023-03-21T05:12:23;7.50;99.90
6666;DHT22;3369;49.906;8.598;2023-03-21T05:14:49;7.50;99.90
6666;DHT22;3369;49.906;8.598;2023-03-21T05:17:15;7.50;99.90
6666;DHT22;3369;49.906;8.598;2023-03-21T05:19:47;7.50;99.90
6666;DHT22;3369;49.906;8.598;2023-03-21T05:22:15;7.50;99.90
6666;DHT22;3369;49.906;8.598;2023-03-21T05:24:44;7.50;99.90
6666;DHT22;3369;49.906;8.598;2023-03-21T05:27:16;7.60;99.90
6666;DHT22;3369;49.906;8.598;2023-03-21T05:30:06;7.50;99.90
6666;DHT22;3369;49.906;8.598;2023-03-21T05:32:35;7.50;99.90
6666;DHT22;3369;49.906;8.598;2023-03-21T05:35:01;7.50;99.90
6666;DHT22;3369;49.906;8.598;2023-03-21T05:37:27;7.50;99.90
6666;DHT22;3369;49.906;8.598;2023-03-21T05:39:53;7.50;99.90
6666;DHT22;3369;49.906;8.598;2023-03-21T05:42:19;7.50;99.90
6666;DHT22;3369;49.906;8.598;2023-03-21T05:44:45;7.50;99.90
6666;DHT22;3369;49.906;8.598;2023-03-21T05:47:12;7.50;99.90
6666;DHT22;3369;49.906;8.598;2023-03-21T05:49:44;7.50;99.90
6666;DHT22;3369;49.906;8.598;2023-03-21T05:52:10;7.50;99.90
6666;DHT22;3369;49.906;8.598;2023-03-21T05:54:36;7.50;99.90
6666;DHT22;3369;49.906;8.598;2023-03-21T05:57:03;7.50;99.90
6666;DHT22;3369;49.906;8.598;2023-03-21T05:59:29;7.50;99.90
6666;DHT22;3369;49.906;8.598;2023-03-21T06:01:55;7.40;99.90
6666;DHT22;3369;49.906;8.598;2023-03-21T06:04:21;7.40;99.90
6666;DHT22;3369;49.906;8.598;2023-03-21T06:06:46;7.50;99.90
6666;DHT22;3369;49.906;8.598;2023-03-21T06:09:12;7.50;99.90
6666;DHT22;3369;49.906;8.598;2023-03-21T06:11:42;7.50;99.90
6666;DHT22;3369;49.906;8.598;2023-03-21T06:14:08;7.50;99.90
6666;DHT22;3369;49.906;8.598;2023-03-21T06:16:34;7.50;99.90
6666;DHT22;3369;49.906;8.598;2023-03-21T06:19:00;7.50;99.90
6666;DHT22;3369;49.906;8.598;2023-03-21T06:21:25;7.50;99.90
6666;DHT22;3369;49.906;8.598;2023-03-21T06:23:51;7.60;99.90
6666;DHT22;3369;49.906;8.598;2023-03-21T06:26:18;7.60;99.90
6666;DHT22;3369;49.906;8.598;2023-03-21T06:28:48;7.70;99.90
6666;DHT22;3369;49.906;8.598;2023-03-21T06:31:14;7.80;99.90
6666;DHT22;3369;49.906;8.598;2023-03-21T06:33:40;7.90;99.90
6666;DHT22;3369;49.906;8.598;2023-03-21T06:36:06;8.00;99.90
6666;DHT22;3369;49.906;8.598;2023-03-21T06:38:32;8.10;99.90
6666;DHT22;3369;49.906;8.598;2023-03-21T06:40:57;8.10;99.90
6666;DHT22;3369;49.906;8.598;2023-03-21T06:43:26;8.20;99.90
6666;DHT22;3369;49.906;8.598;2023-03-21T06:45:51;8.20;99.90
6666;DHT22;3369;49.906;8.598;2023-03-21T06:48:17;8.30;99.90
6666;DHT22;3369;49.906;8.598;2023-03-21T06:50:43;8.30;99.90
6666;DHT22;3369;49.906;8.598;2023-03-21T07:13:06;8.80;99.90
6666;DHT22;3369;49.906;8.598;2023-03-21T07:15:31;9.00;99.90
6666;DHT22;3369;49.906;8.598;2023-03-21T07:17:59;9.10;99.90
6666;DHT22;3369;49.906;8.598;2023-03-21T07:20:25;9.20;99.90
6666;DHT22;3369;49.906;8.598;2023-03-21T07:22:51;9.30;99.90
6666;DHT22;3369;49.906;8.598;2023-03-21T07:25:17;9.40;99.90
6666;DHT22;3369;49.906;8.598;2023-03-21T07:27:44;9.40;99.90
6666;DHT22;3369;49.906;8.598;2023-03-21T07:30:11;9.50;99.90
6666;DHT22;3369;49.906;8.598;2023-03-21T07:32:38;9.50;99.90
6666;DHT22;3369;49.906;8.598;2023-03-21T07:35:09;9.60;99.90
6666;DHT22;3369;49.906;8.598;2023-03-21T07:37:35;9.60;99.90
6666;DHT22;3369;49.906;8.598;2023-03-21T07:40:01;9.70;99.90
6666;DHT22;3369;49.906;8.598;2023-03-21T07:42:35;9.80;99.90
6666;DHT22;3369;49.906;8.598;2023-03-21T07:45:01;9.80;99.90
6666;DHT22;3369;49.906;8.598;2023-03-21T07:47:27;9.90;99.90
6666;DHT22;3369;49.906;8.598;2023-03-21T07:49:54;10.00;99.90
6666;DHT22;3369;49.906;8.598;2023-03-21T07:52:19;10.30;99.90
6666;DHT22;3369;49.906;8.598;2023-03-21T07:54:54;10.40;99.90
6666;DHT22;3369;49.906;8.598;2023-03-21T07:57:20;10.60;99.90
6666;DHT22;3369;49.906;8.598;2023-03-21T07:59:45;10.70;99.90
6666;DHT22;3369;49.906;8.598;2023-03-21T08:02:15;10.70;99.90
6666;DHT22;3369;49.906;8.598;2023-03-21T08:04:41;10.80;99.90
6666;DHT22;3369;49.906;8.598;2023-03-21T08:07:07;10.80;99.90
6666;DHT22;3369;49.906;8.598;2023-03-21T08:09:33;10.90;99.90
6666;DHT22;3369;49.906;8.598;2023-03-21T08:11:59;11.00;99.90
6666;DHT22;3369;49.906;8.598;2023-03-21T08:14:25;11.00;99.90
6666;DHT22;3369;49.906;8.598;2023-03-21T08:16:51;11.10;99.90
6666;DHT22;3369;49.906;8.598;2023-03-21T08:19:16;11.20;99.90
6666;DHT22;3369;49.906;8.598;2023-03-21T08:21:45;11.20;99.90
6666;DHT22;3369;49.906;8.598;2023-03-21T08:24:17;11.40;99.90
6666;DHT22;3369;49.906;8.598;2023-03-21T08:26:45;11.50;99.90
6666;DHT22;3369;49.906;8.598;2023-03-21T08:29:12;11.60;99.90
6666;DHT22;3369;49.906;8.598;2023-03-21T08:31:41;11.70;99.90
6666;DHT22;3369;49.906;8.598;2023-03-21T08:34:07;11.80;99.90
6666;DHT22;3369;49.906;8.598;2023-03-21T08:36:34;12.00;99.90
6666;DHT22;3369;49.906;8.598;2023-03-21T08:39:05;12.10;99.90
6666;DHT22;3369;49.906;8.598;2023-03-21T08:41:33;12.20;99.90
6666;DHT22;3369;49.906;8.598;2023-03-21T08:44:04;12.20;99.90
6666;DHT22;3369;49.906;8.598;2023-03-21T08:46:31;12.30;99.90
6666;DHT22;3369;49.906;8.598;2023-03-21T08:48:57;12.40;99.90
6666;DHT22;3369;49.906;8.598;2023-03-21T08:51:23;12.40;99.90
6666;DHT22;3369;49.906;8.598;2023-03-21T08:53:50;12.60;99.90
6666;DHT22;3369;49.906;8.598;2023-03-21T08:56:17;12.60;99.90
6666;DHT22;3369;49.906;8.598;2023-03-21T08:58:42;12.60;99.90
6666;DHT22;3369;49.906;8.598;2023-03-21T09:01:09;12.60;99.90
6666;DHT22;3369;49.906;8.598;2023-03-21T09:03:37;12.60;99.90
6666;DHT22;3369;49.906;8.598;2023-03-21T09:06:03;12.60;99.90
6666;DHT22;3369;49.906;8.598;2023-03-21T09:08:29;12.50;99.90
6666;DHT22;3369;49.906;8.598;2023-03-21T09:10:55;12.50;99.90
6666;DHT22;3369;49.906;8.598;2023-03-21T09:13:22;12.60;99.90
6666;DHT22;3369;49.906;8.598;2023-03-21T09:15:48;12.60;99.90
6666;DHT22;3369;49.906;8.598;2023-03-21T09:18:14;12.60;99.90
6666;DHT22;3369;49.906;8.598;2023-03-21T09:20:44;12.60;99.90
6666;DHT22;3369;49.906;8.598;2023-03-21T09:23:11;12.60;99.70
6666;DHT22;3369;49.906;8.598;2023-03-21T09:25:38;12.60;99.60
6666;DHT22;3369;49.906;8.598;2023-03-21T09:28:04;12.70;99.90
6666;DHT22;3369;49.906;8.598;2023-03-21T09:30:32;12.70;99.60
6666;DHT22;3369;49.906;8.598;2023-03-21T09:33:02;12.60;99.20
6666;DHT22;3369;49.906;8.598;2023-03-21T09:35:31;12.60;99.40
6666;DHT22;3369;49.906;8.598;2023-03-21T09:37:57;12.60;99.50
6666;DHT22;3369;49.906;8.598;2023-03-21T09:41:01;12.60;99.40
6666;DHT22;3369;49.906;8.598;2023-03-21T09:47:19;12.50;99.60
6666;DHT22;3369;49.906;8.598;2023-03-21T09:50:19;12.60;99.60
6666;DHT22;3369;49.906;8.598;2023-03-21T09:52:56;12.60;99.60
6666;DHT22;3369;49.906;8.598;2023-03-21T09:55:30;12.70;99.60
6666;DHT22;3369;49.906;8.598;2023-03-21T10:00:35;12.70;99.40
6666;DHT22;3369;49.906;8.598;2023-03-21T10:03:04;12.70;99.30
6666;DHT22;3369;49.906;8.598;2023-03-21T10:05:37;12.80;99.50
6666;DHT22;3369;49.906;8.598;2023-03-21T10:08:13;12.80;99.50
6666;DHT22;3369;49.906;8.598;2023-03-21T10:10:46;12.90;99.70
6666;DHT22;3369;49.906;8.598;2023-03-21T10:13:19;13.00;99.50
6666;DHT22;3369;49.906;8.598;2023-03-21T10:15:45;13.00;99.30
6666;DHT22;3369;49.906;8.598;2023-03-21T10:18:19;13.00;99.20
6666;DHT22;3369;49.906;8.598;2023-03-21T10:20:45;13.00;98.90
6666;DHT22;3369;49.906;8.598;2023-03-21T10:23:14;13.10;98.90
6666;DHT22;3369;49.906;8.598;2023-03-21T10:25:48;13.00;98.50
6666;DHT22;3369;49.906;8.598;2023-03-21T10:28:19;13.00;98.60
6666;DHT22;3369;49.906;8.598;2023-03-21T10:30:52;13.00;98.80
6666;DHT22;3369;49.906;8.598;2023-03-21T10:33:25;13.00;98.90
6666;DHT22;3369;49.906;8.598;2023-03-21T10:35:55;13.00;99.00
6666;DHT22;3369;49.906;8.598;2023-03-21T10:38:24;13.00;99.00
6666;DHT22;3369;49.906;8.598;2023-03-21T10:40:51;13.10;99.20
6666;DHT22;3369;49.906;8.598;2023-03-21T10:43:38;13.10;99.20
6666;DHT22;3369;49.906;8.598;2023-03-21T10:46:12;13.10;99.40
6666;DHT22;3369;49.906;8.598;2023-03-21T10:48:43;13.10;99.50
6666;DHT22;3369;49.906;8.598;2023-03-21T10:51:17;13.10;99.60
6666;DHT22;3369;49.906;8.598;2023-03-21T10:54:14;13.00;99.70
6666;DHT22;3369;49.906;8.598;2023-03-21T10:56:53;12.90;99.90
6666;DHT22;3369;49.906;8.598;2023-03-21T10:59:20;12.90;99.90
6666;DHT22;3369;49.906;8.598;2023-03-21T11:01:49;12.80;99.90
6666;DHT22;3369;49.906;8.598;2023-03-21T11:04:21;12.60;99.90
6666;DHT22;3369;49.906;8.598;2023-03-21T11:07:00;12.50;99.90
6666;DHT22;3369;49.906;8.598;2023-03-21T11:09:54;12.40;99.90
6666;DHT22;3369;49.906;8.598;2023-03-21T11:12:36;12.40;99.90
6666;DHT22;3369;49.906;8.598;2023-03-21T11:17:50;12.20;99.90
6666;DHT22;3369;49.906;8.598;2023-03-21T11:20:17;12.10;99.90
6666;DHT22;3369;49.906;8.598;2023-03-21T11:22:44;12.10;99.90
6666;DHT22;3369;49.906;8.598;2023-03-21T11:25:35;12.10;99.90
6666;DHT22;3369;49.906;8.598;2023-03-21T11:28:07;12.00;99.90
6666;DHT22;3369;49.906;8.598;2023-03-21T11:30:33;12.00;99.90
6666;DHT22;3369;49.906;8.598;2023-03-21T11:33:03;12.00;99.90
6666;DHT22;3369;49.906;8.598;2023-03-21T11:35:34;12.00;99.90
6666;DHT22;3369;49.906;8.598;2023-03-21T11:38:00;12.00;99.90
6666;DHT22;3369;49.906;8.598;2023-03-21T11:40:33;11.90;99.90
6666;DHT22;3369;49.906;8.598;2023-03-21T11:45:56;11.80;99.90
6666;DHT22;3369;49.906;8.598;2023-03-21T11:48:23;11.80;99.90
6666;DHT22;3369;49.906;8.598;2023-03-21T11:50:51;11.80;99.90
6666;DHT22;3369;49.906;8.598;2023-03-21T11:53:43;11.70;99.90
6666;DHT22;3369;49.906;8.598;2023-03-21T12:07:01;11.70;99.90
6666;DHT22;3369;49.906;8.598;2023-03-21T12:17:36;11.80;99.90
6666;DHT22;3369;49.906;8.598;2023-03-21T12:26:11;11.90;99.90
6666;DHT22;3369;49.906;8.598;2023-03-21T12:39:23;12.00;99.90
6666;DHT22;3369;49.906;8.598;2023-03-21T12:44:48;11.90;99.90
6666;DHT22;3369;49.906;8.598;2023-03-21T12:47:16;11.90;99.90
6666;DHT22;3369;49.906;8.598;2023-03-21T12:49:59;11.90;99.90
6666;DHT22;3369;49.906;8.598;2023-03-21T12:54:59;11.90;99.90
6666;DHT22;3369;49.906;8.598;2023-03-21T12:57:35;11.90;99.90
6666;DHT22;3369;49.906;8.598;2023-03-21T13:00:15;11.90;99.90
6666;DHT22;3369;49.906;8.598;2023-03-21T13:02:49;12.00;99.90
6666;DHT22;3369;49.906;8.598;2023-03-21T13:08:09;12.00;99.90
6666;DHT22;3369;49.906;8.598;2023-03-21T13:30:17;12.00;99.90
6666;DHT22;3369;49.906;8.598;2023-03-21T13:32:46;12.00;99.90
6666;DHT22;3369;49.906;8.598;2023-03-21T13:35:43;11.90;99.90
6666;DHT22;3369;49.906;8.598;2023-03-21T13:38:24;11.90;99.90
6666;DHT22;3369;49.906;8.598;2023-03-21T13:46:14;11.90;99.90
6666;DHT22;3369;49.906;8.598;2023-03-21T13:59:40;11.80;99.90
6666;DHT22;3369;49.906;8.598;2023-03-21T14:08:49;11.80;99.90
6666;DHT22;3369;49.906;8.598;2023-03-21T14:11:19;11.70;99.90
6666;DHT22;3369;49.906;8.598;2023-03-21T14:13:46;11.70;99.90
6666;DHT22;3369;49.906;8.598;2023-03-21T14:16:16;11.60;99.90
6666;DHT22;3369;49.906;8.598;2023-03-21T14:18:51;11.60;99.90
6666;DHT22;3369;49.906;8.598;2023-03-21T14:21:24;11.60;99.90
6666;DHT22;3369;49.906;8.598;2023-03-21T14:26:24;11.60;99.90
6666;DHT22;3369;49.906;8.598;2023-03-21T14:28:51;11.60;99.90
6666;DHT22;3369;49.906;8.598;2023-03-21T14:31:18;11.50;99.90
6666;DHT22;3369;49.906;8.598;2023-03-21T14:33:50;11.50;99.90
6666;DHT22;3369;49.906;8.598;2023-03-21T14:36:24;11.50;99.90
6666;DHT22;3369;49.906;8.598;2023-03-21T14:41:49;11.50;99.90
6666;DHT22;3369;49.906;8.598;2023-03-21T14:44:19;11.50;99.90
6666;DHT22;3369;49.906;8.598;2023-03-21T14:47:19;11.50;99.90
6666;DHT22;3369;49.906;8.598;2023-03-21T14:49:45;11.50;99.90
6666;DHT22;3369;49.906;8.598;2023-03-21T14:52:16;11.50;99.90
6666;DHT22;3369;49.906;8.598;2023-03-21T14:54:45;11.50;99.90
6666;DHT22;3369;49.906;8.598;2023-03-21T14:57:14;11.50;99.90
6666;DHT22;3369;49.906;8.598;2023-03-21T14:59:43;11.50;99.90
6666;DHT22;3369;49.906;8.598;2023-03-21T15:02:18;11.40;99.90
6666;DHT22;3369;49.906;8.598;2023-03-21T15:04:48;11.30;99.90
6666;DHT22;3369;49.906;8.598;2023-03-21T15:07:27;11.30;99.90
6666;DHT22;3369;49.906;8.598;2023-03-21T15:09:58;11.30;99.90
6666;DHT22;3369;49.906;8.598;2023-03-21T15:12:25;11.20;99.90
6666;DHT22;3369;49.906;8.598;2023-03-21T15:14:51;11.30;99.90
6666;DHT22;3369;49.906;8.598;2023-03-21T15:17:18;11.30;99.90
6666;DHT22;3369;49.906;8.598;2023-03-21T15:19:44;11.30;99.90
6666;DHT22;3369;49.906;8.598;2023-03-21T15:24:50;11.40;99.90
6666;DHT22;3369;49.906;8.598;2023-03-21T15:27:19;11.40;99.90
6666;DHT22;3369;49.906;8.598;2023-03-21T15:29:50;11.40;99.90
6666;DHT22;3369;49.906;8.598;2023-03-21T15:32:20;11.50;99.90
6666;DHT22;3369;49.906;8.598;2023-03-21T15:34:48;11.50;99.90
6666;DHT22;3369;49.906;8.598;2023-03-21T15:37:23;11.50;99.90
6666;DHT22;3369;49.906;8.598;2023-03-21T15:39:52;11.50;99.90
6666;DHT22;3369;49.906;8.598;2023-03-21T15:42:24;11.50;99.90
6666;DHT22;3369;49.906;8.598;2023-03-21T15:44:53;11.60;99.90
6666;DHT22;3369;49.906;8.598;2023-03-21T15:47:48;11.60;99.90
6666;DHT22;3369;49.906;8.598;2023-03-21T15:52:52;11.60;99.90
6666;DHT22;3369;49.906;8.598;2023-03-21T15:55:37;11.60;99.90
6666;DHT22;3369;49.906;8.598;2023-03-21T15:58:12;11.60;99.90
6666;DHT22;3369;49.906;8.598;2023-03-21T16:00:50;11.50;99.90
6666;DHT22;3369;49.906;8.598;2023-03-21T16:03:28;11.50;99.90
6666;DHT22;3369;49.906;8.598;2023-03-21T16:06:30;11.50;99.90
6666;DHT22;3369;49.906;8.598;2023-03-21T16:09:17;11.50;99.90
6666;DHT22;3369;49.906;8.598;2023-03-21T16:11:55;11.50;99.90
6666;DHT22;3369;49.906;8.598;2023-03-21T16:14:22;11.50;99.90
6666;DHT22;3369;49.906;8.598;2023-03-21T16:16:49;11.50;99.90
6666;DHT22;3369;49.906;8.598;2023-03-21T16:19:15;11.50;99.90
6666;DHT22;3369;49.906;8.598;2023-03-21T16:21:41;11.50;99.90
6666;DHT22;3369;49.906;8.598;2023-03-21T16:24:08;11.50;99.90
6666;DHT22;3369;49.906;8.598;2023-03-21T16:26:46;11.50;99.90
6666;DHT22;3369;49.906;8.598;2023-03-21T16:29:14;11.50;99.90
6666;DHT22;3369;49.906;8.598;2023-03-21T16:31:40;11.50;99.90
6666;DHT22;3369;49.906;8.598;2023-03-21T16:34:08;11.50;99.90
6666;DHT22;3369;49.906;8.598;2023-03-21T16:36:39;11.50;99.90
6666;DHT22;3369;49.906;8.598;2023-03-21T16:39:31;11.40;99.90
6666;DHT22;3369;49.906;8.598;2023-03-21T16:41:57;11.40;99.90
6666;DHT22;3369;49.906;8.598;2023-03-21T16:44:23;11.40;99.90
6666;DHT22;3369;49.906;8.598;2023-03-21T16:46:48;11.30;99.90
6666;DHT22;3369;49.906;8.598;2023-03-21T16:49:32;11.30;99.90
6666;DHT22;3369;49.906;8.598;2023-03-21T16:51:58;11.30;99.90
6666;DHT22;3369;49.906;8.598;2023-03-21T16:54:24;11.20;99.90
6666;DHT22;3369;49.906;8.598;2023-03-21T16:56:52;11.30;99.90
6666;DHT22;3369;49.906;8.598;2023-03-21T16:59:19;11.20;99.90
6666;DHT22;3369;49.906;8.598;2023-03-21T17:01:45;11.20;99.90
6666;DHT22;3369;49.906;8.598;2023-03-21T17:04:13;11.20;99.90
6666;DHT22;3369;49.906;8.598;2023-03-21T17:06:45;11.20;99.90
6666;DHT22;3369;49.906;8.598;2023-03-21T17:09:13;11.10;99.90
6666;DHT22;3369;49.906;8.598;2023-03-21T17:11:40;11.10;99.90
6666;DHT22;3369;49.906;8.598;2023-03-21T17:14:08;11.10;99.90
6666;DHT22;3369;49.906;8.598;2023-03-21T17:16:34;11.10;99.90
6666;DHT22;3369;49.906;8.598;2023-03-21T17:19:00;11.10;99.90
6666;DHT22;3369;49.906;8.598;2023-03-21T17:21:28;11.10;99.90
6666;DHT22;3369;49.906;8.598;2023-03-21T17:23:55;11.10;99.90
6666;DHT22;3369;49.906;8.598;2023-03-21T17:26:22;11.10;99.90
6666;DHT22;3369;49.906;8.598;2023-03-21T17:28:48;11.00;99.90
6666;DHT22;3369;49.906;8.598;2023-03-21T17:31:16;11.00;99.90
6666;DHT22;3369;49.906;8.598;2023-03-21T17:33:43;11.00;99.90
6666;DHT22;3369;49.906;8.598;2023-03-21T17:36:23;10.90;99.90
6666;DHT22;3369;49.906;8.598;2023-03-21T17:38:51;10.90;99.90
6666;DHT22;3369;49.906;8.598;2023-03-21T17:41:18;10.80;99.90
6666;DHT22;3369;49.906;8.598;2023-03-21T17:43:44;10.80;99.90
6666;DHT22;3369;49.906;8.598;2023-03-21T17:46:13;10.80;99.90
6666;DHT22;3369;49.906;8.598;2023-03-21T17:48:39;10.80;99.90
6666;DHT22;3369;49.906;8.598;2023-03-21T17:51:05;10.80;99.90
6666;DHT22;3369;49.906;8.598;2023-03-21T17:53:31;10.80;99.90
6666;DHT22;3369;49.906;8.598;2023-03-21T17:55:57;10.80;99.90
6666;DHT22;3369;49.906;8.598;2023-03-21T17:58:23;10.80;99.90
6666;DHT22;3369;49.906;8.598;2023-03-21T18:00:50;10.80;99.90
6666;DHT22;3369;49.906;8.598;2023-03-21T18:03:16;10.70;99.90
6666;DHT22;3369;49.906;8.598;2023-03-21T18:05:42;10.70;99.90
6666;DHT22;3369;49.906;8.598;2023-03-21T18:08:09;10.70;99.90
6666;DHT22;3369;49.906;8.598;2023-03-21T18:10:35;10.70;99.90
6666;DHT22;3369;49.906;8.598;2023-03-21T18:13:01;10.60;99.90
6666;DHT22;3369;49.906;8.598;2023-03-21T18:15:27;10.60;99.90
6666;DHT22;3369;49.906;8.598;2023-03-21T18:17:53;10.60;99.90
6666;DHT22;3369;49.906;8.598;2023-03-21T18:20:21;10.50;99.90
6666;DHT22;3369;49.906;8.598;2023-03-21T18:22:48;10.50;99.90
6666;DHT22;3369;49.906;8.598;2023-03-21T18:25:16;10.40;99.90
6666;DHT22;3369;49.906;8.598;2023-03-21T18:27:42;10.40;99.90
6666;DHT22;3369;49.906;8.598;2023-03-21T18:30:13;10.30;99.90
6666;DHT22;3369;49.906;8.598;2023-03-21T18:32:39;10.30;99.90
6666;DHT22;3369;49.906;8.598;2023-03-21T18:35:06;10.20;99.90
6666;DHT22;3369;49.906;8.598;2023-03-21T18:37:32;10.20;99.90
6666;DHT22;3369;49.906;8.598;2023-03-21T18:39:58;10.10;99.90
6666;DHT22;3369;49.906;8.598;2023-03-21T18:42:25;10.00;99.90
6666;DHT22;3369;49.906;8.598;2023-03-21T18:44:51;10.00;99.90
6666;DHT22;3369;49.906;8.598;2023-03-21T18:47:17;10.00;99.90
6666;DHT22;3369;49.906;8.598;2023-03-21T18:49:43;9.90;99.90
6666;DHT22;3369;49.906;8.598;2023-03-21T18:52:09;9.90;99.90
6666;DHT22;3369;49.906;8.598;2023-03-21T18:54:37;9.90;99.90
6666;DHT22;3369;49.906;8.598;2023-03-21T18:57:04;9.80;99.90
6666;DHT22;3369;49.906;8.598;2023-03-21T18:59:33;9.80;99.90
6666;DHT22;3369;49.906;8.598;2023-03-21T19:02:04;9.80;99.90
6666;DHT22;3369;49.906;8.598;2023-03-21T19:04:30;9.80;99.90
6666;DHT22;3369;49.906;8.598;2023-03-21T19:06:56;9.80;99.90
6666;DHT22;3369;49.906;8.598;2023-03-21T19:29:41;9.40;99.90
6666;DHT22;3369;49.906;8.598;2023-03-21T19:32:07;9.30;99.90
6666;DHT22;3369;49.906;8.598;2023-03-21T19:34:33;9.30;99.90
6666;DHT22;3369;49.906;8.598;2023-03-21T19:39:34;9.30;99.90
6666;DHT22;3369;49.906;8.598;2023-03-21T19:42:00;9.30;99.90
6666;DHT22;3369;49.906;8.598;2023-03-21T19:44:28;9.40;99.90
6666;DHT22;3369;49.906;8.598;2023-03-21T19:46:54;9.40;99.90
6666;DHT22;3369;49.906;8.598;2023-03-21T19:49:20;9.40;99.90
6666;DHT22;3369;49.906;8.598;2023-03-21T19:51:47;9.40;99.90
6666;DHT22;3369;49.906;8.598;2023-03-21T19:54:16;9.40;99.90
6666;DHT22;3369;49.906;8.598;2023-03-21T19:56:43;9.40;99.90
6666;DHT22;3369;49.906;8.598;2023-03-21T19:59:09;9.40;99.90